createdAt,value
2023-04-15T00:00:07.332Z,99892.34
2023-04-15T00:02:35.687Z,99899.28
2023-04-15T00:05:03.387Z,99899.28
2023-04-15T00:07:31.930Z,99897.56
2023-04-15T00:10:00.011Z,99894.91
2023-04-15T00:12:27.815Z,99893.13
2023-04-15T00:14:57.183Z,99885.38
2023-04-15T00:17:25.305Z,99890.50
2023-04-15T00:19:52.815Z,99878.41
2023-04-15T00:22:20.741Z,99881.72
2023-04-15T00:24:49.103Z,99882.59
2023-04-15T00:27:17.153Z,99878.38
2023-04-15T00:29:44.775Z,99875.88
2023-04-15T00:32:19.051Z,99867.28
2023-04-15T00:34:47.242Z,99861.19
2023-04-15T00:37:14.727Z,99862.88
2023-04-15T00:39:42.542Z,99866.19
2023-04-15T00:42:09.942Z,99872.09
2023-04-15T00:44:38.243Z,99861.78
2023-04-15T00:47:05.457Z,99857.28
2023-04-15T00:49:33.249Z,99857.94
2023-04-15T00:52:01.153Z,99860.44
2023-04-15T00:54:29.279Z,99856.97
2023-04-15T00:56:58.110Z,99862.13
2023-04-15T00:59:26.028Z,99865.53
2023-04-15T01:01:53.198Z,99868.88
2023-04-15T01:04:20.806Z,99876.41
2023-04-15T01:06:48.675Z,99880.66
2023-04-15T01:09:17.081Z,99883.28
2023-04-15T01:11:44.845Z,99876.34
2023-04-15T01:14:12.665Z,99873.81
2023-04-15T01:16:39.911Z,99871.09
2023-04-15T01:19:09.196Z,99872.78
2023-04-15T01:21:39.895Z,99869.25
2023-04-15T01:24:11.046Z,99867.47
2023-04-15T01:26:44.474Z,99870.03
2023-04-15T01:29:12.171Z,99878.63
2023-04-15T01:31:40.285Z,99868.31
2023-04-15T01:34:08.125Z,99867.47
2023-04-15T01:36:35.576Z,99873.56
2023-04-15T01:39:04.217Z,99872.56
2023-04-15T01:41:35.018Z,99868.25
2023-04-15T01:44:02.860Z,99868.03
2023-04-15T01:46:30.803Z,99870.66
2023-04-15T01:48:58.592Z,99868.00
2023-04-15T01:51:26.755Z,99868.78
2023-04-15T01:53:56.961Z,99864.28
2023-04-15T01:56:24.699Z,99866.03
2023-04-15T01:58:52.470Z,99870.28
2023-04-15T02:01:19.957Z,99875.31
2023-04-15T02:03:48.052Z,99866.69
2023-04-15T02:06:15.924Z,99869.31
2023-04-15T02:08:44.874Z,99871.19
2023-04-15T02:11:12.619Z,99880.56
2023-04-15T02:13:40.586Z,99864.06
2023-04-15T02:16:17.336Z,99867.44
2023-04-15T02:18:48.235Z,99874.16
2023-04-15T02:21:15.920Z,99872.41
2023-04-15T02:23:44.326Z,99875.81
2023-04-15T02:26:12.086Z,99875.78
2023-04-15T02:28:40.495Z,99872.31
2023-04-15T02:31:09.704Z,99873.16
2023-04-15T02:33:37.922Z,99872.31
2023-04-15T02:36:08.465Z,99872.28
2023-04-15T02:38:36.729Z,99873.94
2023-04-15T02:41:04.940Z,99875.50
2023-04-15T02:43:35.861Z,99875.56
2023-04-15T02:46:03.844Z,99870.16
2023-04-15T02:48:31.899Z,99875.31
2023-04-15T02:51:20.048Z,99881.38
2023-04-15T02:53:48.669Z,99883.06
2023-04-15T02:56:17.397Z,99885.63
2023-04-15T02:58:46.036Z,99883.06
2023-04-15T03:01:13.805Z,99886.53
2023-04-15T03:03:41.476Z,99891.84
2023-04-15T03:06:09.271Z,99889.41
2023-04-15T03:08:37.241Z,99890.19
2023-04-15T03:11:06.352Z,99888.53
2023-04-15T03:13:33.890Z,99892.00
2023-04-15T03:16:01.770Z,99889.47
2023-04-15T03:18:29.398Z,99891.19
2023-04-15T03:20:57.338Z,99896.34
2023-04-15T03:23:25.227Z,99892.91
2023-04-15T03:25:55.688Z,99903.13
2023-04-15T03:28:23.624Z,99900.41
2023-04-15T03:30:51.545Z,99902.25
2023-04-15T03:33:19.389Z,99902.28
2023-04-15T03:35:51.396Z,99900.53
2023-04-15T03:38:19.253Z,99905.78
2023-04-15T03:40:47.856Z,99903.94
2023-04-15T03:43:15.316Z,99906.38
2023-04-15T03:45:43.214Z,99910.72
2023-04-15T03:48:16.602Z,99903.13
2023-04-15T03:50:45.603Z,99909.13
2023-04-15T03:53:13.596Z,99903.19
2023-04-15T03:55:41.613Z,99908.34
2023-04-15T03:58:12.941Z,99906.59
2023-04-15T04:00:41.614Z,99902.13
2023-04-15T04:03:09.805Z,99903.00
2023-04-15T04:05:39.060Z,99903.91
2023-04-15T04:08:07.621Z,99902.19
2023-04-15T04:10:35.238Z,99902.22
2023-04-15T04:13:03.258Z,99897.06
2023-04-15T04:15:31.290Z,99903.91
2023-04-15T04:17:59.251Z,99905.69
2023-04-15T04:20:26.860Z,99912.50
2023-04-15T04:22:54.723Z,99909.94
2023-04-15T04:25:23.152Z,99911.69
2023-04-15T04:27:50.745Z,99915.16
2023-04-15T04:30:19.098Z,99913.41
2023-04-15T04:32:47.130Z,99917.69
2023-04-15T04:35:14.637Z,99916.81
2023-04-15T04:37:42.792Z,99913.38
2023-04-15T04:40:13.256Z,99915.97
2023-04-15T04:42:40.755Z,99919.44
2023-04-15T04:45:10.387Z,99918.63
2023-04-15T04:47:38.487Z,99919.44
2023-04-15T04:50:09.244Z,99930.72
2023-04-15T04:52:37.330Z,99932.50
2023-04-15T04:55:08.907Z,99934.22
2023-04-15T04:57:36.522Z,99936.84
2023-04-15T05:00:06.337Z,99945.34
2023-04-15T05:02:34.757Z,99945.31
2023-04-15T05:05:02.895Z,99944.44
2023-04-15T05:07:30.718Z,99951.38
2023-04-15T05:09:58.642Z,99944.59
2023-04-15T05:12:26.290Z,99950.66
2023-04-15T05:14:54.318Z,99949.03
2023-04-15T05:17:22.025Z,99946.47
2023-04-15T05:19:50.039Z,99950.13
2023-04-15T05:22:18.028Z,99955.47
2023-04-15T05:24:45.615Z,99967.72
2023-04-15T05:27:13.149Z,99966.28
2023-04-15T05:29:40.718Z,99969.03
2023-04-15T05:32:14.341Z,99976.84
2023-04-15T05:34:42.019Z,99977.13
2023-04-15T05:37:09.784Z,99974.75
2023-04-15T05:39:37.372Z,99973.94
2023-04-15T05:42:06.058Z,99980.03
2023-04-15T05:44:33.695Z,99980.13
2023-04-15T05:47:01.441Z,99990.56
2023-04-15T05:49:29.372Z,99986.38
2023-04-15T05:51:57.111Z,99985.63
2023-04-15T05:54:24.584Z,99986.59
2023-04-15T05:56:52.095Z,99984.91
2023-04-15T05:59:21.032Z,99994.50
2023-04-15T06:01:48.634Z,99991.94
2023-04-15T06:04:17.338Z,99984.44
2023-04-15T06:06:45.062Z,99987.09
2023-04-15T06:09:12.914Z,99994.06
2023-04-15T06:11:41.420Z,99982.03
2023-04-15T06:14:09.345Z,99984.81
2023-04-15T06:16:37.589Z,99981.47
2023-04-15T06:19:05.804Z,99980.66
2023-04-15T06:21:33.547Z,99979.88
2023-04-15T06:24:04.029Z,99978.25
2023-04-15T06:26:38.088Z,99975.81
2023-04-15T06:29:05.845Z,99980.25
2023-04-15T06:31:34.145Z,99978.53
2023-04-15T06:34:01.727Z,99976.09
2023-04-15T06:36:30.000Z,99977.94
2023-04-15T06:38:57.969Z,99981.44
2023-04-15T06:41:25.593Z,99981.59
2023-04-15T06:43:53.134Z,99976.53
2023-04-15T06:46:20.847Z,99976.66
2023-04-15T06:48:48.996Z,99978.56
2023-04-15T06:51:16.663Z,99976.06
2023-04-15T06:53:47.219Z,99975.31
2023-04-15T06:56:15.062Z,99976.25
2023-04-15T06:58:43.017Z,99978.94
2023-04-15T07:01:11.392Z,99973.84
2023-04-15T07:03:38.919Z,99977.38
2023-04-15T07:06:07.248Z,99974.78
2023-04-15T07:08:35.253Z,99976.53
2023-04-15T07:11:02.881Z,99986.06
2023-04-15T07:13:32.294Z,99977.47
2023-04-15T07:15:59.829Z,99987.91
2023-04-15T07:18:27.697Z,99992.25
2023-04-15T07:20:56.821Z,99986.25
2023-04-15T07:23:24.433Z,99987.16
2023-04-15T07:25:52.293Z,99985.50
2023-04-15T07:28:20.828Z,99982.97
2023-04-15T07:30:48.319Z,99983.09
2023-04-15T07:33:16.003Z,99978.78
2023-04-15T07:35:43.579Z,99981.41
2023-04-15T07:38:13.583Z,99980.56
2023-04-15T07:40:42.938Z,99981.47
2023-04-15T07:43:10.857Z,99990.09
2023-04-15T07:45:38.411Z,99991.03
2023-04-15T07:48:08.260Z,99982.44
2023-04-15T07:50:36.260Z,99991.97
2023-04-15T07:53:03.767Z,99986.81
2023-04-15T07:55:31.649Z,99984.25
2023-04-15T07:57:59.676Z,99989.47
2023-04-15T08:00:27.486Z,99991.19
2023-04-15T08:02:57.452Z,99989.47
2023-04-15T08:05:25.859Z,99993.78
2023-04-15T08:07:53.897Z,99995.50
2023-04-15T08:10:22.034Z,99998.13
2023-04-15T08:12:49.720Z,99991.22
2023-04-15T08:15:21.104Z,99997.34
2023-04-15T08:17:49.252Z,100000.78
2023-04-15T08:20:16.966Z,99985.25
2023-04-15T08:22:44.716Z,99995.59
2023-04-15T08:25:12.902Z,99992.16
2023-04-15T08:27:41.135Z,99988.72
2023-04-15T08:30:10.824Z,99994.75
2023-04-15T08:32:38.857Z,99993.00
2023-04-15T08:35:08.051Z,99993.03
2023-04-15T08:37:35.964Z,99990.44
2023-04-15T08:40:04.216Z,100001.66
2023-04-15T08:42:37.535Z,99999.06
2023-04-15T08:45:06.897Z,99999.91
2023-04-15T08:47:34.552Z,100002.50
2023-04-15T08:50:02.737Z,99997.28
2023-04-15T08:52:31.556Z,99998.13
2023-04-15T08:54:59.107Z,99997.25
2023-04-15T08:57:28.639Z,99994.69
2023-04-15T08:59:58.506Z,99997.25
2023-04-15T09:02:28.608Z,99995.50
2023-04-15T09:04:56.807Z,99995.44
2023-04-15T09:07:24.295Z,100003.22
2023-04-15T09:09:52.481Z,100004.91
2023-04-15T09:12:20.982Z,99993.66
2023-04-15T09:14:48.441Z,99997.09
2023-04-15T09:17:15.833Z,99993.63
2023-04-15T09:19:43.812Z,99998.81
2023-04-15T09:22:11.522Z,99992.72
2023-04-15T09:24:40.338Z,99990.97
2023-04-15T09:27:08.431Z,99991.81
2023-04-15T09:29:37.193Z,99991.72
2023-04-15T09:32:11.873Z,99992.63
2023-04-15T09:34:39.470Z,99987.47
2023-04-15T09:37:07.709Z,99990.03
2023-04-15T09:39:51.241Z,99985.63
2023-04-15T09:42:26.768Z,99995.09
2023-04-15T09:44:54.475Z,99991.63
2023-04-15T09:47:32.551Z,99996.75
2023-04-15T09:50:00.495Z,99982.78
2023-04-15T09:52:28.905Z,99975.78
2023-04-15T09:54:57.950Z,99980.13
2023-04-15T09:57:25.207Z,99979.25
2023-04-15T09:59:53.328Z,99974.88
2023-04-15T10:02:22.812Z,99980.06
2023-04-15T10:04:50.351Z,99970.53
2023-04-15T10:07:20.816Z,99968.84
2023-04-15T10:09:49.449Z,99973.13
2023-04-15T10:12:17.957Z,99967.88
2023-04-15T10:14:45.709Z,99973.88
2023-04-15T10:17:12.869Z,99971.31
2023-04-15T10:19:40.840Z,99973.00
2023-04-15T10:22:07.631Z,99970.41
2023-04-15T10:24:34.860Z,99970.34
2023-04-15T10:27:01.756Z,99960.78
2023-04-15T10:29:29.342Z,99963.31
2023-04-15T10:31:56.400Z,99964.16
2023-04-15T10:34:26.547Z,99964.03
2023-04-15T10:36:57.441Z,99961.34
2023-04-15T10:39:34.360Z,99959.56
2023-04-15T10:42:30.672Z,99958.50
2023-04-15T10:44:58.334Z,99961.88
2023-04-15T10:47:26.286Z,99956.66
2023-04-15T10:50:02.486Z,99961.78
2023-04-15T10:52:30.164Z,99955.53
2023-04-15T10:55:20.110Z,99948.50
2023-04-15T10:57:47.773Z,99958.91
2023-04-15T11:00:16.950Z,99955.34
2023-04-15T11:03:04.685Z,99952.69
2023-04-15T11:05:50.365Z,99949.81
2023-04-15T11:08:21.460Z,99951.38
2023-04-15T11:10:48.809Z,99939.06
2023-04-15T11:13:18.841Z,99940.66
2023-04-15T11:15:47.005Z,99940.44
2023-04-15T11:18:24.410Z,99939.50
2023-04-15T11:21:01.692Z,99940.31
2023-04-15T11:23:39.110Z,99928.00
2023-04-15T11:26:09.904Z,99931.19
2023-04-15T11:28:39.059Z,99930.13
2023-04-15T11:31:10.843Z,99932.66
2023-04-15T11:33:38.889Z,99931.19
2023-04-15T11:36:07.566Z,99926.56
2023-04-15T11:38:35.679Z,99927.19
2023-04-15T11:41:03.248Z,99926.78
2023-04-15T11:43:30.592Z,99930.84
2023-04-15T11:46:00.394Z,99929.66
2023-04-15T11:48:35.348Z,99931.19
2023-04-15T11:51:06.004Z,99924.34
2023-04-15T11:53:46.356Z,99918.09
2023-04-15T11:56:24.907Z,99919.94
2023-04-15T11:58:59.585Z,99926.75
2023-04-15T12:01:37.404Z,99919.41
2023-04-15T12:04:12.771Z,99924.06
2023-04-15T12:06:41.376Z,99932.00
2023-04-15T12:09:14.459Z,99919.31
2023-04-15T12:11:57.588Z,99925.72
2023-04-15T12:14:31.226Z,99926.25
2023-04-15T12:17:00.384Z,99926.25
2023-04-15T12:19:39.530Z,99925.81
2023-04-15T12:22:10.178Z,99923.16
2023-04-15T12:24:37.747Z,99919.88
2023-04-15T12:27:29.707Z,99919.19
2023-04-15T12:30:08.104Z,99922.19
2023-04-15T12:32:39.599Z,99914.72
2023-04-15T12:35:10.067Z,99917.69
2023-04-15T12:37:37.999Z,99918.75
2023-04-15T12:40:05.903Z,99922.69
2023-04-15T12:42:33.654Z,99920.03
2023-04-15T12:45:02.410Z,99916.59
2023-04-15T12:47:30.498Z,99929.44
2023-04-15T12:49:57.928Z,99926.00
2023-04-15T12:52:25.642Z,99925.03
2023-04-15T12:54:54.365Z,99923.19
2023-04-15T12:57:21.855Z,99918.28
2023-04-15T12:59:49.271Z,99917.44
2023-04-15T13:02:17.351Z,99911.91
2023-04-15T13:04:45.444Z,99916.06
2023-04-15T13:07:14.130Z,99918.19
2023-04-15T13:09:42.092Z,99914.47
2023-04-15T13:12:10.449Z,99905.44
2023-04-15T13:14:38.396Z,99917.63
2023-04-15T13:17:10.170Z,99922.09
2023-04-15T13:19:37.634Z,99916.28
2023-04-15T13:22:08.518Z,99923.81
2023-04-15T13:24:36.577Z,99921.44
2023-04-15T13:27:04.454Z,99906.78
2023-04-15T13:29:32.668Z,99910.06
2023-04-15T13:32:01.574Z,99912.38
2023-04-15T13:34:29.486Z,99919.84
2023-04-15T13:36:57.799Z,99922.69
2023-04-15T13:39:25.589Z,99924.69
2023-04-15T13:41:53.543Z,99928.50
2023-04-15T13:44:22.342Z,99931.88
2023-04-15T13:46:50.191Z,99929.16
2023-04-15T13:49:18.314Z,99928.81
2023-04-15T13:51:46.396Z,99929.22
2023-04-15T13:54:14.558Z,99937.06
2023-04-15T13:56:42.374Z,99932.38
2023-04-15T13:59:10.428Z,99926.81
2023-04-15T14:01:37.949Z,99925.13
2023-04-15T14:04:06.791Z,99919.53
2023-04-15T14:06:34.554Z,99919.97
2023-04-15T14:09:02.149Z,99920.56
2023-04-15T14:11:30.043Z,99916.91
2023-04-15T14:13:57.905Z,99920.09
2023-04-15T14:16:24.995Z,99919.03
2023-04-15T14:18:52.603Z,99923.94
2023-04-15T14:21:20.601Z,99920.44
2023-04-15T14:23:48.520Z,99916.09
2023-04-15T14:26:16.414Z,99917.56
2023-04-15T14:28:44.997Z,99922.97
2023-04-15T14:31:13.180Z,99927.38
2023-04-15T14:33:40.706Z,99927.66
2023-04-15T14:36:09.332Z,99927.97
2023-04-15T14:38:40.175Z,99936.28
2023-04-15T14:41:08.145Z,99935.09
2023-04-15T14:43:44.394Z,99938.78
2023-04-15T14:46:12.155Z,99943.84
2023-04-15T14:48:39.699Z,99938.25
2023-04-15T14:51:07.619Z,99953.53
2023-04-15T14:53:35.313Z,99950.50
2023-04-15T14:56:03.163Z,99945.81
2023-04-15T14:58:30.867Z,99954.00
2023-04-15T15:00:58.863Z,99957.47
2023-04-15T15:03:26.049Z,99959.41
2023-04-15T15:05:53.727Z,99962.16
2023-04-15T15:08:21.854Z,99955.47
2023-04-15T15:10:50.327Z,99959.19
2023-04-15T15:13:17.981Z,99966.38
2023-04-15T15:15:45.134Z,99966.63
2023-04-15T15:18:12.729Z,99972.28
2023-04-15T15:20:40.980Z,99974.72
2023-04-15T15:23:08.848Z,99967.25
2023-04-15T15:25:36.718Z,99969.38
2023-04-15T15:28:04.751Z,99974.06
2023-04-15T15:30:32.642Z,99979.50
2023-04-15T15:33:00.964Z,99972.22
2023-04-15T15:35:28.658Z,99972.78
2023-04-15T15:37:56.034Z,99979.28
2023-04-15T15:40:24.358Z,99975.66
2023-04-15T15:42:51.870Z,99982.44
2023-04-15T15:45:19.973Z,99982.88
2023-04-15T15:47:48.543Z,99985.00
2023-04-15T15:50:16.496Z,99992.78
2023-04-15T15:52:44.159Z,99991.22
2023-04-15T15:55:11.774Z,99995.06
2023-04-15T15:57:39.739Z,99990.88
2023-04-15T16:00:12.547Z,99995.16
2023-04-15T16:03:05.260Z,99999.47
2023-04-15T16:05:28.661Z,99998.66
2023-04-15T16:07:56.363Z,100002.41
2023-04-15T16:10:23.818Z,100004.38
2023-04-15T16:12:51.605Z,100009.81
2023-04-15T16:15:19.558Z,100009.16
2023-04-15T16:17:47.468Z,100012.06
2023-04-15T16:20:15.451Z,100014.88
2023-04-15T16:22:45.728Z,100019.50
2023-04-15T16:25:13.654Z,100023.28
2023-04-15T16:27:54.607Z,100027.03
2023-04-15T16:30:27.113Z,100027.97
2023-04-15T16:32:54.624Z,100035.09
2023-04-15T16:35:22.487Z,100048.28
2023-04-15T16:37:50.597Z,100039.81
2023-04-15T16:40:18.654Z,100040.84
2023-04-15T16:42:47.112Z,100048.00
2023-04-15T16:45:14.722Z,100053.44
2023-04-15T16:47:46.781Z,100050.84
2023-04-15T16:50:14.878Z,100054.34
2023-04-15T16:52:42.431Z,100056.13
2023-04-15T16:55:10.010Z,100051.94
2023-04-15T16:57:58.795Z,100052.00
2023-04-15T17:00:25.708Z,100073.81
2023-04-15T17:02:54.247Z,100075.59
2023-04-15T17:05:22.757Z,100080.91
2023-04-15T17:07:50.732Z,100090.53
2023-04-15T17:10:18.978Z,100091.53
2023-04-15T17:12:50.292Z,100107.22
2023-04-15T17:15:20.082Z,100110.75
2023-04-15T17:17:48.134Z,100116.91
2023-04-15T17:20:17.565Z,100115.25
2023-04-15T17:22:46.892Z,100117.94
2023-04-15T17:25:15.435Z,100115.38
2023-04-15T17:27:43.675Z,100120.63
2023-04-15T17:30:11.765Z,100125.81
2023-04-15T17:32:40.016Z,100138.84
2023-04-15T17:35:10.398Z,100139.75
2023-04-15T17:37:38.537Z,100141.47
2023-04-15T17:40:09.017Z,100143.22
2023-04-15T17:42:36.755Z,100149.34
2023-04-15T17:45:05.559Z,100154.56
2023-04-15T17:47:35.930Z,100157.22
2023-04-15T17:50:03.426Z,100155.47
2023-04-15T17:52:30.943Z,100174.53
2023-04-15T17:54:58.349Z,100165.91
2023-04-15T17:57:26.366Z,100172.81
2023-04-15T17:59:54.306Z,100166.78
2023-04-15T18:02:22.331Z,100172.84
2023-04-15T18:04:50.003Z,100178.03
2023-04-15T18:07:17.335Z,100196.22
2023-04-15T18:09:44.828Z,100195.34
2023-04-15T18:12:12.617Z,100203.16
2023-04-15T18:14:42.620Z,100208.31
2023-04-15T18:17:10.415Z,100208.28
2023-04-15T18:19:37.887Z,100211.75
2023-04-15T18:22:06.083Z,100212.59
2023-04-15T18:24:34.007Z,100216.06
2023-04-15T18:27:01.691Z,100220.34
2023-04-15T18:29:29.053Z,100225.50
2023-04-15T18:31:58.771Z,100237.59
2023-04-15T18:34:27.128Z,100233.25
2023-04-15T18:36:56.559Z,100239.28
2023-04-15T18:39:24.612Z,100242.69
2023-04-15T18:41:52.542Z,100254.78
2023-04-15T18:44:20.646Z,100255.63
2023-04-15T18:46:49.898Z,100259.94
2023-04-15T18:49:17.881Z,100262.50
2023-04-15T18:51:46.479Z,100271.97
2023-04-15T18:54:14.378Z,100271.09
2023-04-15T18:56:42.356Z,100277.84
2023-04-15T18:59:29.991Z,100285.63
2023-04-15T19:01:59.209Z,100281.25
2023-04-15T19:04:28.841Z,100288.09
2023-04-15T19:06:59.385Z,100290.66
2023-04-15T19:09:27.258Z,100292.34
2023-04-15T19:11:54.702Z,100291.47
2023-04-15T19:14:22.681Z,100296.59
2023-04-15T19:16:50.268Z,100301.72
2023-04-15T19:19:17.998Z,100304.31
2023-04-15T19:21:47.657Z,100309.41
2023-04-15T19:24:15.998Z,100318.84
2023-04-15T19:26:44.395Z,100316.25
2023-04-15T19:29:12.392Z,100317.97
2023-04-15T19:31:40.507Z,100323.94
2023-04-15T19:34:08.470Z,100333.41
2023-04-15T19:36:36.172Z,100329.94
2023-04-15T19:39:04.311Z,100335.03
2023-04-15T19:41:32.116Z,100336.69
2023-04-15T19:44:00.299Z,100338.44
2023-04-15T19:46:27.629Z,100347.94
2023-04-15T19:48:55.923Z,100349.63
2023-04-15T19:51:23.829Z,100349.66
2023-04-15T19:53:53.873Z,100349.63
2023-04-15T19:56:23.820Z,100354.81
2023-04-15T19:58:53.106Z,100357.38
2023-04-15T20:01:23.860Z,100357.31
2023-04-15T20:03:51.225Z,100359.91
2023-04-15T20:06:19.361Z,100359.88
2023-04-15T20:08:48.966Z,100360.72
2023-04-15T20:11:17.089Z,100363.28
2023-04-15T20:13:45.290Z,100361.50
2023-04-15T20:16:13.328Z,100364.06
2023-04-15T20:18:41.593Z,100368.31
2023-04-15T20:21:09.158Z,100370.81
2023-04-15T20:23:38.732Z,100375.94
2023-04-15T20:26:06.583Z,100368.97
2023-04-15T20:28:38.266Z,100380.09
2023-04-15T20:31:05.920Z,100376.63
2023-04-15T20:33:33.483Z,100386.88
2023-04-15T20:36:01.093Z,100398.06
2023-04-15T20:38:29.047Z,100402.44
2023-04-15T20:40:57.828Z,100398.06
2023-04-15T20:43:26.126Z,100406.66
2023-04-15T20:45:54.355Z,100406.63
2023-04-15T20:48:23.255Z,100415.19
2023-04-15T20:50:52.093Z,100409.16
2023-04-15T20:53:20.351Z,100410.03
2023-04-15T20:55:48.138Z,100414.31
2023-04-15T20:58:15.647Z,100408.25
2023-04-15T21:00:43.480Z,100416.88
2023-04-15T21:03:12.336Z,100421.97
2023-04-15T21:05:40.270Z,100416.81
2023-04-15T21:08:08.828Z,100424.56
2023-04-15T21:10:36.303Z,100427.13
2023-04-15T21:13:04.477Z,100425.34
2023-04-15T21:15:31.960Z,100427.84
2023-04-15T21:17:59.881Z,100422.69
2023-04-15T21:20:28.015Z,100421.00
2023-04-15T21:22:58.764Z,100420.09
2023-04-15T21:25:26.188Z,100433.00
2023-04-15T21:27:53.980Z,100437.28
2023-04-15T21:30:23.756Z,100439.06
2023-04-15T21:32:51.738Z,100440.69
2023-04-15T21:35:19.383Z,100457.03
2023-04-15T21:37:47.403Z,100456.06
2023-04-15T21:40:15.900Z,100456.03
2023-04-15T21:42:43.417Z,100464.50
2023-04-15T21:45:13.312Z,100465.25
2023-04-15T21:48:00.386Z,100462.56
2023-04-15T21:50:27.659Z,100460.84
2023-04-15T21:52:56.217Z,100460.75
2023-04-15T21:55:24.058Z,100464.06
2023-04-15T21:57:51.657Z,100454.53
2023-04-15T22:00:19.562Z,100466.59
2023-04-15T22:02:47.561Z,100457.88
2023-04-15T22:05:15.542Z,100454.44
2023-04-15T22:07:43.051Z,100461.31
2023-04-15T22:10:11.799Z,100463.91
2023-04-15T22:12:43.914Z,100469.06
2023-04-15T22:15:12.232Z,100466.50
2023-04-15T22:17:39.744Z,100476.75
2023-04-15T22:20:10.400Z,100475.81
2023-04-15T22:22:44.090Z,100478.38
2023-04-15T22:25:12.727Z,100477.44
2023-04-15T22:27:40.317Z,100479.16
2023-04-15T22:30:10.553Z,100483.41
2023-04-15T22:32:38.472Z,100479.13
2023-04-15T22:35:07.696Z,100484.16
2023-04-15T22:37:35.495Z,100480.72
2023-04-15T22:40:03.305Z,100485.03
2023-04-15T22:42:30.833Z,100485.03
2023-04-15T22:44:58.695Z,100483.31
2023-04-15T22:47:26.365Z,100478.94
2023-04-15T22:49:53.773Z,100481.38
2023-04-15T22:52:30.120Z,100479.66
2023-04-15T22:54:58.876Z,100488.19
2023-04-15T22:57:27.896Z,100488.16
2023-04-15T22:59:55.360Z,100488.94
2023-04-15T23:02:23.357Z,100490.59
2023-04-15T23:04:51.560Z,100493.16
2023-04-15T23:07:19.695Z,100488.81
2023-04-15T23:09:47.536Z,100495.66
2023-04-15T23:12:15.417Z,100493.91
2023-04-15T23:14:43.257Z,100499.91
2023-04-15T23:17:13.554Z,100499.03
2023-04-15T23:19:41.168Z,100502.47
2023-04-15T23:22:10.667Z,100488.69
2023-04-15T23:24:38.654Z,100495.59
2023-04-15T23:27:06.064Z,100495.66
2023-04-15T23:29:34.027Z,100493.03
2023-04-15T23:32:01.827Z,100498.19
2023-04-15T23:34:29.274Z,100499.03
2023-04-15T23:36:57.043Z,100490.44
2023-04-15T23:39:24.912Z,100496.41
2023-04-15T23:41:52.449Z,100494.66
2023-04-15T23:44:20.834Z,100494.56
2023-04-15T23:46:48.362Z,100493.66
2023-04-15T23:49:16.347Z,100498.78
2023-04-15T23:51:44.963Z,100500.50
2023-04-15T23:54:12.871Z,100503.84
2023-04-15T23:56:40.626Z,100508.94
2023-04-15T23:59:08.333Z,100508.88
